Terminal Aerodrome Forecast
Issued by NWS

Home | Current Version | Previous Version | Text Only | Print | Product List | Glossary Off
Versions: 1 2 3 4 5 6 7 8 9 10 11 12

092
FTUS43 KPAH 142320
TAFCGI
TAF
KCGI 142320Z 1500/1524 01006KT P6SM OVC040
     FM150600 29003KT P6SM SCT040 BKN150
     FM151400 27006KT P6SM SCT040=

USA.gov is the U.S. government's official web portal to all federal, state and local government web resources and services.